Fort Dauphin, Madagascar
Current Conditions -  °F | °C
As of 5:00 PM on Monday 26 Jan 2015 (Local Time) from FMSD Reporting Station
Scattered Clouds Scattered Clouds  
Wind Chill: 82°   Ceiling: Unl
Heat Index: 89°   Visibility: 6mi
Dew Point: 75°   Wind: 21mph
Humidity: 79%   Direction: 60°ENE
Pressure: 29.97"   Gusts: NA
Location:  25.03°S, 46.99°E
Report Text: FMSD 261400Z 06018KT 9999 SCT016 SCT033 28/24 Q1015
Loading
Personal Weather Stations






























Interactive Weather Map New forecast layout! Learn more

10-Day Weather Forecast

Advertisements
Track Severe Weather on mobile